Fehn Light — V2FE6 — position and weather

sailwx.info

Track history (hours):
 
Tides and Currents Weather Stations Pressure Air Temp Water Temp Dewpoint Dewpoint Depression Visibility Wind Speed Wind Dir Waves Ship Positions

Fehn Light

Last reported at 2017-Dec-09 02:54 UTC. Time now 2017-Dec-12 16:16 UTC.
Position N 38°54' W 010°18'.

Length 107 m; draft 8.2 m.

Type: Cargo ship. MMSI: 305653000.

Date/timePositionNaut miles runAvg speedWind from/ knotsBaromVisibWave heightAir tempDewpointWater temp
2017-Dec-09 02:54N 38°54' W 010°18'411.1
2017-Dec-09 02:30N 38°59' W 010°17'711.0
2017-Dec-09 01:52N 39°06' W 010°17'411.3
2017-Dec-09 01:29N 39°10' W 010°16'611.5
2017-Dec-09 01:01N 39°16' W 010°16'611.7
2017-Dec-09 00:31N 39°21' W 010°16'  
2017-Dec-04 02:13N 54°01' E 007°56'211.2
2017-Dec-04 02:00N 54°01' E 008°00'611.4
2017-Dec-04 01:30N 54°00' E 008°10'611.6
2017-Dec-04 01:00N 53°60' E 008°19'510.3
2017-Dec-04 00:30N 53°59' E 008°28'510.5
2017-Dec-04 00:00N 53°58' E 008°37'5 9.1
2017-Dec-03 23:30N 53°54' E 008°42'4 8.4
2017-Dec-03 23:01N 53°51' E 008°46'4 7.9
2017-Dec-03 22:30N 53°51' E 008°53'4 7.7
2017-Dec-03 22:00N 53°51' E 008°59'4 8.1
2017-Dec-03 21:30N 53°53' E 009°06'2 4.0
2017-Dec-03 21:00N 53°54' E 009°09'0 0.0
2017-Dec-03 20:30N 53°54' E 009°09'1 1.8
2017-Dec-03 20:00N 53°54' E 009°10'1 2.2
2017-Dec-03 19:30N 53°55' E 009°11'3 6.7
2017-Dec-03 19:00N 53°58' E 009°15'4 7.9
2017-Dec-03 18:30N 54°01' E 009°18'4 8.1
2017-Dec-03 17:59N 54°05' E 009°19'4 7.7
2017-Dec-03 17:30N 54°09' E 009°21'4 7.7
2017-Dec-03 17:00N 54°10' E 009°27'4 7.9
2017-Dec-03 16:30N 54°12' E 009°33'0 0.6
2017-Dec-03 16:00N 54°12' E 009°34'2 4.8
2017-Dec-03 15:30N 54°14' E 009°36'4 7.4
2017-Dec-03 15:00N 54°17' E 009°39'3 6.5
2017-Dec-03 14:30N 54°20' E 009°43'4 8.3
2017-Dec-03 14:00N 54°22' E 009°49'20 4.7
2017-Dec-03 09:44N 54°31' E 010°20'310.3
2017-Dec-03 09:28N 54°32' E 010°25'510.4
2017-Dec-03 09:00N 54°34' E 010°32'510.3
2017-Dec-03 08:30N 54°35' E 010°41'510.4
2017-Dec-03 08:00N 54°35' E 010°50'510.8
2017-Dec-03 07:30N 54°36' E 010°59'611.3
2017-Dec-03 07:00N 54°36' E 011°09'611.6
2017-Dec-03 06:30N 54°34' E 011°18'611.2
2017-Dec-03 06:00N 54°31' E 011°27'611.2
2017-Dec-03 05:30N 54°29' E 011°36'511.0
2017-Dec-03 05:00N 54°27' E 011°44'710.3
2017-Dec-03 04:17N 54°27' E 011°57'310.2
2017-Dec-03 04:00N 54°27' E 012°02'69 9.8
2017-Dec-02 21:02N 55°00' E 013°46'1210.4
2017-Dec-02 19:51N 55°05' E 014°06'510.5
2017-Dec-02 19:20N 55°09' E 014°12'510.4
2017-Dec-02 18:50N 55°13' E 014°17'510.4
2017-Dec-02 18:19N 55°17' E 014°23'310.7
2017-Dec-02 18:00N 55°20' E 014°27'510.7
2017-Dec-02 17:30N 55°24' E 014°33'510.6
2017-Dec-02 16:59N 55°27' E 014°40'510.7
2017-Dec-02 16:30N 55°30' E 014°48'610.7
2017-Dec-02 15:57N 55°33' E 014°57'510.8
2017-Dec-02 15:29N 55°36' E 015°05'510.8
2017-Dec-02 15:00N 55°38' E 015°13'510.7
2017-Dec-02 14:30N 55°41' E 015°21'510.6
2017-Dec-02 14:00N 55°44' E 015°29'510.6
2017-Dec-02 13:30N 55°47' E 015°37'510.7
2017-Dec-02 13:00N 55°50' E 015°45'510.5
2017-Dec-02 12:30N 55°52' E 015°53'510.5
2017-Dec-02 12:00N 55°55' E 016°01'510.8
2017-Dec-02 11:30N 55°57' E 016°09'510.9
2017-Dec-02 11:00N 56°00' E 016°18'510.9
2017-Dec-02 10:30N 56°03' E 016°26'511.0
2017-Dec-02 10:00N 56°06' E 016°35'611.0
2017-Dec-02 09:28N 56°09' E 016°44'511.0
2017-Dec-02 09:00N 56°13' E 016°47'611.1
2017-Dec-02 08:30N 56°18' E 016°51'23510.2
2017-Dec-01 09:25N 60°00' E 019°18'411.1
2017-Dec-01 09:00N 60°04' E 019°12'611.2
2017-Dec-01 08:30N 60°08' E 019°05'510.9
2017-Dec-01 08:00N 60°13' E 019°01'611.5
2017-Dec-01 07:29N 60°19' E 019°00'511.3
2017-Dec-01 07:00N 60°25' E 018°59'610.6
2017-Dec-01 06:28N 60°30' E 018°56'511.1
2017-Dec-01 05:59N 60°33' E 018°47'  
Track history (hours):
 
Tides and Currents Weather Stations Pressure Air Temp Water Temp Dewpoint Dewpoint Depression Visibility Wind Speed Wind Dir Waves Ship Positions

Fehn Light

Last reported at 2017-Dec-09 02:54 UTC. Time now 2017-Dec-12 16:16 UTC.
Position N 38°54' W 010°18'.

Length 107 m; draft 8.2 m.

Type: Cargo ship. MMSI: 305653000.

Date/timePositionNaut miles runAvg speedWind from/ knotsBaromVisibWave heightAir tempDewpointWater temp
2017-Dec-09 02:54N 38°54' W 010°18'411.1
2017-Dec-09 02:30N 38°59' W 010°17'711.0
2017-Dec-09 01:52N 39°06' W 010°17'411.3
2017-Dec-09 01:29N 39°10' W 010°16'611.5
2017-Dec-09 01:01N 39°16' W 010°16'611.7
2017-Dec-09 00:31N 39°21' W 010°16'  
2017-Dec-04 02:13N 54°01' E 007°56'211.2
2017-Dec-04 02:00N 54°01' E 008°00'611.4
2017-Dec-04 01:30N 54°00' E 008°10'611.6
2017-Dec-04 01:00N 53°60' E 008°19'510.3
2017-Dec-04 00:30N 53°59' E 008°28'510.5
2017-Dec-04 00:00N 53°58' E 008°37'5 9.1
2017-Dec-03 23:30N 53°54' E 008°42'4 8.4
2017-Dec-03 23:01N 53°51' E 008°46'4 7.9
2017-Dec-03 22:30N 53°51' E 008°53'4 7.7
2017-Dec-03 22:00N 53°51' E 008°59'4 8.1
2017-Dec-03 21:30N 53°53' E 009°06'2 4.0
2017-Dec-03 21:00N 53°54' E 009°09'0 0.0
2017-Dec-03 20:30N 53°54' E 009°09'1 1.8
2017-Dec-03 20:00N 53°54' E 009°10'1 2.2
2017-Dec-03 19:30N 53°55' E 009°11'3 6.7
2017-Dec-03 19:00N 53°58' E 009°15'4 7.9
2017-Dec-03 18:30N 54°01' E 009°18'4 8.1
2017-Dec-03 17:59N 54°05' E 009°19'4 7.7
2017-Dec-03 17:30N 54°09' E 009°21'4 7.7
2017-Dec-03 17:00N 54°10' E 009°27'4 7.9
2017-Dec-03 16:30N 54°12' E 009°33'0 0.6
2017-Dec-03 16:00N 54°12' E 009°34'2 4.8
2017-Dec-03 15:30N 54°14' E 009°36'4 7.4
2017-Dec-03 15:00N 54°17' E 009°39'3 6.5
2017-Dec-03 14:30N 54°20' E 009°43'4 8.3
2017-Dec-03 14:00N 54°22' E 009°49'20 4.7
2017-Dec-03 09:44N 54°31' E 010°20'310.3
2017-Dec-03 09:28N 54°32' E 010°25'510.4
2017-Dec-03 09:00N 54°34' E 010°32'510.3
2017-Dec-03 08:30N 54°35' E 010°41'510.4
2017-Dec-03 08:00N 54°35' E 010°50'510.8
2017-Dec-03 07:30N 54°36' E 010°59'611.3
2017-Dec-03 07:00N 54°36' E 011°09'611.6
2017-Dec-03 06:30N 54°34' E 011°18'611.2
2017-Dec-03 06:00N 54°31' E 011°27'611.2
2017-Dec-03 05:30N 54°29' E 011°36'511.0
2017-Dec-03 05:00N 54°27' E 011°44'710.3
2017-Dec-03 04:17N 54°27' E 011°57'310.2
2017-Dec-03 04:00N 54°27' E 012°02'69 9.8
2017-Dec-02 21:02N 55°00' E 013°46'1210.4
2017-Dec-02 19:51N 55°05' E 014°06'510.5
2017-Dec-02 19:20N 55°09' E 014°12'510.4
2017-Dec-02 18:50N 55°13' E 014°17'510.4
2017-Dec-02 18:19N 55°17' E 014°23'310.7
2017-Dec-02 18:00N 55°20' E 014°27'510.7
2017-Dec-02 17:30N 55°24' E 014°33'510.6
2017-Dec-02 16:59N 55°27' E 014°40'510.7
2017-Dec-02 16:30N 55°30' E 014°48'610.7
2017-Dec-02 15:57N 55°33' E 014°57'510.8
2017-Dec-02 15:29N 55°36' E 015°05'510.8
2017-Dec-02 15:00N 55°38' E 015°13'510.7
2017-Dec-02 14:30N 55°41' E 015°21'510.6
2017-Dec-02 14:00N 55°44' E 015°29'510.6
2017-Dec-02 13:30N 55°47' E 015°37'510.7
2017-Dec-02 13:00N 55°50' E 015°45'510.5
2017-Dec-02 12:30N 55°52' E 015°53'510.5
2017-Dec-02 12:00N 55°55' E 016°01'510.8
2017-Dec-02 11:30N 55°57' E 016°09'510.9
2017-Dec-02 11:00N 56°00' E 016°18'510.9
2017-Dec-02 10:30N 56°03' E 016°26'511.0
2017-Dec-02 10:00N 56°06' E 016°35'611.0
2017-Dec-02 09:28N 56°09' E 016°44'511.0
2017-Dec-02 09:00N 56°13' E 016°47'611.1
2017-Dec-02 08:30N 56°18' E 016°51'23510.2
2017-Dec-01 09:25N 60°00' E 019°18'411.1
2017-Dec-01 09:00N 60°04' E 019°12'611.2
2017-Dec-01 08:30N 60°08' E 019°05'510.9
2017-Dec-01 08:00N 60°13' E 019°01'611.5
2017-Dec-01 07:29N 60°19' E 019°00'511.3
2017-Dec-01 07:00N 60°25' E 018°59'610.6
2017-Dec-01 06:28N 60°30' E 018°56'511.1
2017-Dec-01 05:59N 60°33' E 018°47'  

Dump ship's entire track history